ADDS METAR Data INFO
IDs: Format: Raw Decoded Include TAF

Data at: 0508 UTC 23 May 2017

KBKS 230455Z AUTO 04003KT 10SM SCT065 OVC080 25/24 A2985 RMK AO1 T02500235
KBKS 230435Z AUTO 00000KT 10SM BKN065 BKN090 25/23 A2986 RMK AO1 T02480233
KBKS 230415Z AUTO 00000KT 10SM SCT065 25/23 A2985 RMK AO1 T02480230
KBKS 230355Z AUTO 05003KT 10SM CLR 25/23 A2984 RMK AO1 T02470229
KBKS 230335Z AUTO 00000KT 10SM CLR 25/23 A2984 RMK AO1 T02530230
KBKS 230315Z AUTO 00000KT 10SM CLR 25/23 A2983 RMK AO1 T02530230
KBKS 230255Z AUTO 00000KT 10SM CLR 26/23 A2983 RMK AO1 T02560230
KBKS 230235Z AUTO 00000KT 10SM CLR 26/23 A2982 RMK AO1 T02580228
KBKS 230215Z AUTO 07003KT 10SM CLR 26/23 A2982 RMK AO1 T02630226
KBKS 230155Z AUTO 00000KT 10SM CLR 27/22 A2982 RMK AO1 T02680224
KBKS 230135Z AUTO 08004KT 10SM CLR 27/22 A2980 RMK AO1 T02710221
KBKS 230115Z AUTO 09005KT 10SM CLR 28/21 A2980 RMK AO1 T02770212
KBKS 230055Z AUTO 09004KT 10SM CLR 28/21 A2980 RMK AO1 T02830212
KBKS 230035Z AUTO 07006KT 10SM SCT070 29/20 A2980 RMK AO1 T02900203
KBKS 230015Z AUTO 06005KT 10SM BKN070 30/20 A2980 RMK AO1 T02960203
KBKS 222355Z AUTO 07008KT 10SM BKN070 BKN080 30/20 A2981 RMK AO1 T03000203 10307 20245
KBKS 222335Z AUTO 07007KT 10SM BKN075 BKN080 30/21 A2980 RMK AO1 T03010206
KBKS 222315Z AUTO 06008KT 10SM OVC075 30/21 A2981 RMK AO1 T03000205
KBKS 222255Z AUTO 06008KT 10SM BKN075 OVC085 30/21 A2981 RMK AO1 T03000206
KBKS 222235Z AUTO 06009KT 10SM SCT075 BKN085 30/21 A2982 RMK AO1 T03020212
KBKS 222215Z AUTO 04008KT 10SM BKN085 31/21 A2981 RMK AO1 T03050214
KBKS 222155Z AUTO 04008KT 10SM BKN075 31/22 A2982 RMK AO1 T03060218
KBKS 222135Z AUTO 04010KT 10SM SCT075 BKN085 30/23 A2983 RMK AO1 T03020227
KBKS 222115Z AUTO 05011KT 10SM SCT020 SCT075 30/23 A2983 RMK AO1 T03040230
KBKS 222055Z AUTO 07010KT 10SM SCT020 30/23 A2984 RMK AO1 T02970232
KBKS 222035Z AUTO 06009G15KT 10SM SCT021 30/24 A2985 RMK AO1 T02980235
KBKS 222015Z AUTO 04009G15KT 7SM CLR 29/23 A2985 RMK AO1 T02890233
KBKS 221955Z AUTO 05010G17KT 10SM SCT042 BKN048 28/23 A2986 RMK AO1 T02830231
KBKS 221935Z AUTO 05008KT 10SM SCT040 OVC046 27/23 A2988 RMK AO1 T02710230
KBKS 221915Z AUTO 05008KT 10SM SCT039 OVC046 27/23 A2988 RMK AO1 T02700230
KBKS 221855Z AUTO 06007KT 10SM SCT039 BKN046 OVC050 26/23 A2989 RMK AO1 T02620231
KBKS 221835Z AUTO 02007KT 10SM SCT048 BKN050 OVC085 26/24 A2989 RMK AO1 T02610235
KBKS 221815Z AUTO 01008KT 10SM BKN048 OVC055 25/23 A2989 RMK AO1 T02530234
KBKS 221755Z AUTO 03006KT 10SM BKN048 BKN060 25/23 A2990 RMK AO1 60013 T02450233 10245 20215
KBKS 221735Z AUTO 02006KT 10SM SCT034 BKN044 OVC060 23/23 A2991 RMK AO1 T02340225
KBKS 221715Z AUTO 36005KT 5SM SCT033 OVC040 23/22 A2992 RMK AO1 T02280220
KBKS 221655Z AUTO 36004KT 3SM SCT007 BKN032 OVC038 23/22 A2993 RMK AO1 P0004 T02270220
KBKS 221635Z AUTO 35006KT 7SM BKN007 BKN020 OVC036 23/22 A2993 RMK AO1 P0001 T02270218
KBKS 221615Z AUTO 00000KT 5SM SCT007 BKN037 OVC049 22/22 A2994 RMK AO1 P0001 T02240215
KBKS 221555Z AUTO 02004KT 10SM BKN029 OVC035 22/21 A2994 RMK AO1 P0005 T02210212
KBKS 221535Z AUTO 01005KT 3SM OVC027 22/21 A2994 RMK AO1 P0005 T02230213
KBKS 221515Z AUTO 06004KT 5SM SCT010 OVC025 22/21 A2995 RMK AO1 P0002 T02200207
KBKS 221455Z AUTO 06008KT 10SM OVC025 22/21 A2995 RMK AO1 60004 T02200205
KBKS 221435Z AUTO 01007KT 10SM OVC025 22/21 A2994 RMK AO1 T02200207
KBKS 221415Z AUTO 02006KT 10SM OVC025 22/21 A2993 RMK AO1 T02200206
KBKS 221355Z AUTO 03007KT 10SM BKN019 OVC027 22/21 A2993 RMK AO1 P0001 T02180209
KBKS 221335Z AUTO 05004KT 10SM OVC019 22/21 A2993 RMK AO1 P0001 T02160206
KBKS 221315Z AUTO 36003KT 7SM OVC016 22/21 A2993 RMK AO1 P0001 T02150205
KBKS 221255Z AUTO 01006KT 4SM SCT006 OVC014 22/21 A2991 RMK AO1 P0003 T02170206
KBKS 221235Z AUTO 35006KT 7SM SCT004 OVC014 22/21 A2991 RMK AO1 T02180207
KBKS 221215Z AUTO 01006KT 5SM BKN004 OVC014 22/21 A2990 RMK AO1 T02200210
KBKS 221155Z AUTO 36010KT 5SM OVC004 22/21 A2990 RMK AO1 P0001 60001 70002 T02200210 10259 20220
KBKS 221135Z AUTO 36006KT 7SM OVC004 23/22 A2990 RMK AO1 P0001 T02250215
KBKS 221115Z AUTO 35009KT 7SM BKN004 OVC009 23/22 A2990 RMK AO1 T02290220
KBKS 221055Z AUTO 33006KT 10SM BKN009 BKN026 OVC044 23/22 A2991 RMK AO1 T02310222
KBKS 221035Z AUTO 35005KT 10SM SCT004 BKN011 OVC055 23/22 A2990 RMK AO1 T02320223
KBKS 221015Z AUTO 35006KT 7SM BKN004 OVC023 24/23 A2990 RMK AO1 T02350227
KBKS 220955Z AUTO 35006KT 4SM SCT002 BKN014 OVC060 26/25 A2990 RMK AO1 T02550247
KBKS 220935Z AUTO 33004KT 5SM SCT010 BKN014 OVC060 26/25 A2992 RMK AO1 T02550247
KBKS 220915Z AUTO 00000KT 5SM BKN012 BKN020 BKN029 26/25 A2991 RMK AO1 T02550249
KBKS 220855Z AUTO 00000KT 5SM SCT012 BKN019 BKN032 26/25 A2991 RMK AO1 T02550249
KBKS 220835Z AUTO 00000KT 5SM SCT008 BKN014 OVC031 26/25 A2992 RMK AO1 T02550249
KBKS 220815Z AUTO 00000KT 5SM BKN008 BKN014 OVC021 26/25 A2992 RMK AO1 T02550248
KBKS 220755Z AUTO 35003KT 5SM SCT008 BKN012 OVC031 26/25 A2992 RMK AO1 T02550248
KBKS 220735Z AUTO 00000KT 5SM BKN015 OVC021 26/25 A2994 RMK AO1 T02560250
KBKS 220715Z AUTO 00000KT 5SM BKN015 OVC020 26/25 A2994 RMK AO1 T02550248
KBKS 220655Z AUTO 00000KT 5SM SCT009 OVC014 26/25 A2994 RMK AO1 T02550247
KBKS 220635Z AUTO 00000KT 5SM BKN014 BKN025 26/25 A2995 RMK AO1 T02550246
KBKS 220615Z AUTO 36003KT 5SM SCT014 BKN021 BKN027 26/25 A2995 RMK AO1 T02550246
KBKS 220555Z AUTO 00000KT 7SM BKN014 OVC021 26/25 A2996 RMK AO1 60001 T02600248 10276 20257 403280250
KBKS 220535Z AUTO 00000KT 7SM SCT014 BKN023 BKN027 26/25 A2996 RMK AO1 T02580246
KBKS 220515Z AUTO 00000KT 7SM CLR 26/25 A2996 RMK AO1 T02580246
KBKS 220455Z AUTO 06008KT 7SM SCT028 SCT048 SCT100 26/25 A2991 RMK AO1 T02580246
KBKS 220435Z AUTO 09005KT 7SM SCT012 BKN017 OVC100 26/25 A2996 RMK AO1 T02600247
KBKS 220415Z AUTO 22004KT 7SM BKN012 BKN018 26/25 A2999 RMK AO1 T02610249
KBKS 220355Z AUTO 10007KT 7SM SCT016 SCT024 SCT120 26/25 A2992 RMK AO1 T02580246
KBKS 220335Z AUTO 10008KT 7SM SCT014 SCT020 SCT031 26/25 A2992 RMK AO1 T02570245
KBKS 220315Z AUTO 10006KT 7SM BKN012 BKN041 BKN060 26/25 A2995 RMK AO1 T02600245
KBKS 220255Z AUTO 05008KT 7SM BKN012 BKN055 BKN075 26/25 A2994 RMK AO1 P0001 60001 T02600245
KBKS 220235Z AUTO 00000KT 7SM SCT012 SCT080 SCT110 26/25 A2998 RMK AO1 T02620245
KBKS 220215Z AUTO 14005G16KT 7SM SCT090 SCT110 26/24 A2991 RMK AO1 T02600243
KBKS 220155Z AUTO 08018KT 7SM SCT090 SCT110 27/24 A2986 RMK AO1 T02650241
KBKS 220135Z AUTO 09008KT 7SM SCT090 27/24 A2990 RMK AO1 T02680240
KBKS 220115Z AUTO 09010G15KT 10SM SCT090 27/24 A2991 RMK AO1 T02680240
KBKS 220055Z AUTO 08011KT 10SM CLR 27/24 A2988 RMK AO1 T02690239
KBKS 220035Z AUTO 08011G18KT 10SM CLR 27/24 A2986 RMK AO1 T02700240
KBKS 220015Z AUTO 08011G16KT 10SM SCT018 27/24 A2986 RMK AO1 T02720238
KBKS 212355Z AUTO 07008KT 10SM CLR 28/23 A2988 RMK AO1 T02770232 10328 20277
KBKS 212335Z AUTO 07007KT 10SM SCT024 28/23 A2988 RMK AO1 T02800230
KBKS 212315Z AUTO 07008KT 10SM SCT026 28/23 A2987 RMK AO1 T02840230
KBKS 212255Z AUTO 09008KT 10SM CLR 29/23 A2987 RMK AO1 T02870227
KBKS 212235Z AUTO 09009KT 10SM CLR 29/22 A2986 RMK AO1 T02900223
KBKS 212215Z AUTO 11010KT 10SM CLR 29/22 A2985 RMK AO1 T02920221
KBKS 212155Z AUTO 10011KT 10SM CLR 30/22 A2985 RMK AO1 T02950217
KBKS 212135Z AUTO 11009G15KT 10SM CLR 30/21 A2986 RMK AO1 T03010211
KBKS 212115Z AUTO 09009G16KT 10SM CLR 31/21 A2988 RMK AO1 T03060207
KBKS 212055Z AUTO 11009G18KT 10SM CLR 31/20 A2987 RMK AO1 T03110201
KBKS 212035Z AUTO 11011KT 10SM CLR 32/20 A2988 RMK AO1 T03180198
KBKS 212015Z AUTO 12011G19KT 10SM CLR 32/20 A2988 RMK AO1 T03200199
KBKS 211955Z AUTO 11013G18KT 10SM CLR 32/20 A2988 RMK AO1 T03230200
KBKS 211935Z AUTO 11011KT 10SM SCT043 SCT060 32/21 A2988 RMK AO1 T03230205
KBKS 211915Z AUTO 09011G15KT 10SM SCT043 SCT060 32/21 A2990 RMK AO1 T03210206
KBKS 211855Z AUTO 12010G14KT 10SM SCT041 SCT050 32/21 A2991 RMK AO1 T03220209
KBKS 211835Z AUTO 11011G18KT 10SM SCT043 SCT050 32/20 A2991 RMK AO1 T03210204
KBKS 211815Z AUTO 10010G18KT 10SM SCT041 SCT085 33/21 A2992 RMK AO1 T03250207
KBKS 211755Z AUTO 09010G16KT 10SM SCT039 SCT048 SCT060 33/21 A2992 RMK AO1 T03250213 10325 20251
KBKS 211735Z AUTO 11010KT 10SM SCT034 SCT040 SCT048 32/22 A2993 RMK AO1 T03180215
KBKS 211715Z AUTO 07011G15KT 10SM SCT031 SCT039 BKN048 31/23 A2994 RMK AO1 T03130230


Page loaded:  05:08 UTC  |   10:08 PM Pacific  |   11:08 PM Mountain  |   12:08 AM Central  |   01:08 AM Eastern

 

ADVISORIES

FORECASTS

FORECASTS

OBSERVATIONS

USER TOOLS

ABOUT US